Time;durP1;ratioP1;P1;durP2;ratioP2;P2;SDS_P1;SDS_P2;PMS_P1;PMS_P2;Temp;Humidity;BMP_temperature;BMP_pressure;BME280_temperature;BME280_humidity;BME280_pressure;Samples;Min_cycle;Max_cycle;Signal;HPM_P1;HPM_P2
2020/12/07 00:00:18;;;;;;;83.45;24.65;;;5.70;99.90;;;;;;5054086;28;20049;-62
2020/12/07 00:03:04;;;;;;;66.93;22.27;;;5.70;99.90;;;;;;5054015;28;20080;-63
2020/12/07 00:05:30;;;;;;;64.07;22.10;;;5.70;99.90;;;;;;5054777;28;20045;-62
2020/12/07 00:07:57;;;;;;;71.60;21.65;;;5.70;99.90;;;;;;5054985;28;20107;-63
2020/12/07 00:10:22;;;;;;;53.47;19.80;;;5.70;99.90;;;;;;5054733;28;20075;-62
2020/12/07 00:13:08;;;;;;;70.80;22.42;;;5.70;99.90;;;;;;5053473;28;20055;-63
2020/12/07 00:15:54;;;;;;;75.88;23.23;;;5.70;99.90;;;;;;5053294;28;20048;-62
2020/12/07 00:18:39;;;;;;;74.05;22.67;;;5.60;99.90;;;;;;5053746;28;20063;-62
2020/12/07 00:21:09;;;;;;;72.60;21.50;;;5.60;99.90;;;;;;5054596;28;20045;-62
2020/12/07 00:23:36;;;;;;;56.03;19.20;;;5.60;99.90;;;;;;5054613;28;20049;-62
2020/12/07 00:26:02;;;;;;;72.55;22.58;;;5.60;99.90;;;;;;5054548;28;20499;-62
2020/12/07 00:28:28;;;;;;;62.83;19.77;;;5.60;99.90;;;;;;5054281;28;20335;-62
2020/12/07 00:30:53;;;;;;;54.67;18.83;;;5.60;99.90;;;;;;5054199;28;20048;-63
2020/12/07 00:33:39;;;;;;;65.70;20.60;;;5.50;99.90;;;;;;5053463;28;20061;-63
2020/12/07 00:36:05;;;;;;;52.55;17.65;;;5.60;99.90;;;;;;5054332;28;20056;-63
2020/12/07 00:38:31;;;;;;;73.00;20.55;;;5.60;99.90;;;;;;5054116;28;20045;-63
2020/12/07 00:41:23;;;;;;;67.57;20.42;;;5.50;99.90;;;;;;5052841;28;20622;-62
2020/12/07 00:43:50;;;;;;;50.95;17.30;;;5.50;99.90;;;;;;5053984;28;20059;-63
2020/12/07 00:46:17;;;;;;;60.72;17.77;;;5.50;99.90;;;;;;5052912;28;20500;-62
2020/12/07 00:48:43;;;;;;;72.68;20.40;;;5.50;99.90;;;;;;5053935;28;20119;-63
2020/12/07 00:51:29;;;;;;;51.63;17.30;;;5.50;99.90;;;;;;5053030;28;20053;-63
2020/12/07 00:53:55;;;;;;;46.97;16.95;;;5.50;99.90;;;;;;5053768;28;20048;-63
2020/12/07 00:56:20;;;;;;;59.25;18.42;;;5.50;99.90;;;;;;5053826;28;20552;-64
2020/12/07 00:59:07;;;;;;;49.38;16.65;;;5.50;99.90;;;;;;5053239;28;20524;-63
2020/12/07 01:01:34;;;;;;;67.95;20.60;;;5.40;99.90;;;;;;5053623;28;20048;-63
2020/12/07 01:03:59;;;;;;;63.03;18.90;;;5.40;99.90;;;;;;5053583;28;20098;-63
2020/12/07 01:06:30;;;;;;;57.55;18.23;;;5.40;99.90;;;;;;5053824;28;20108;-63
2020/12/07 01:08:56;;;;;;;54.92;17.85;;;5.40;99.90;;;;;;5053573;28;20056;-63
2020/12/07 01:11:22;;;;;;;64.60;19.10;;;5.30;99.90;;;;;;5053385;28;20065;-63
2020/12/07 01:13:47;;;;;;;72.63;20.40;;;5.30;99.90;;;;;;5053470;28;20523;-63
2020/12/07 01:16:35;;;;;;;56.63;19.13;;;5.30;99.90;;;;;;5052476;28;20162;-63
2020/12/07 01:19:04;;;;;;;;;;;5.30;99.90;;;;;;5053867;28;20611;-62
2020/12/07 01:21:32;;;;;;;62.47;19.15;;;5.30;99.90;;;;;;5053315;28;19955;-62
2020/12/07 01:23:58;;;;;;;73.63;19.95;;;5.30;99.90;;;;;;5053362;28;20045;-62
2020/12/07 01:26:24;;;;;;;85.93;22.92;;;5.20;99.90;;;;;;5052797;28;20151;-62
2020/12/07 01:28:50;;;;;;;95.20;23.02;;;5.30;99.90;;;;;;5051990;28;20076;-62
2020/12/07 01:31:35;;;;;;;96.35;25.02;;;5.30;99.90;;;;;;5052258;28;20087;-62
2020/12/07 01:34:22;;;;;;;89.50;21.90;;;5.30;99.90;;;;;;5052251;28;20049;-62
2020/12/07 01:36:48;;;;;;;104.53;23.20;;;5.30;99.90;;;;;;5053302;28;20078;-62
2020/12/07 01:39:14;;;;;;;139.57;25.58;;;5.30;99.90;;;;;;5052968;28;20048;-62
2020/12/07 01:41:39;;;;;;;188.23;27.95;;;5.20;99.90;;;;;;5052915;28;20053;-62
2020/12/07 01:44:05;;;;;;;146.50;26.42;;;5.20;99.90;;;;;;5053418;28;20052;-63
2020/12/07 01:46:51;;;;;;;136.00;25.67;;;5.20;99.90;;;;;;5052294;28;20443;-62
2020/12/07 01:49:17;;;;;;;133.93;27.58;;;5.20;99.90;;;;;;5052969;28;20045;-62
2020/12/07 01:52:03;;;;;;;80.70;22.17;;;5.30;99.90;;;;;;5052080;28;20045;-62
2020/12/07 01:54:29;;;;;;;74.28;21.15;;;5.20;99.90;;;;;;5052766;28;20052;-62
2020/12/07 01:57:15;;;;;;;74.22;19.98;;;5.20;99.90;;;;;;5051928;28;20095;-63
2020/12/07 01:59:40;;;;;;;86.28;20.60;;;5.20;99.90;;;;;;5052792;28;20473;-62
2020/12/07 02:02:26;;;;;;;118.97;25.13;;;5.20;99.90;;;;;;5051991;28;20045;-62
2020/12/07 02:04:52;;;;;;;97.20;20.77;;;5.20;99.90;;;;;;5052617;28;20045;-62
2020/12/07 02:07:38;;;;;;;123.65;23.75;;;5.20;99.90;;;;;;5051783;28;20056;-62
2020/12/07 02:10:23;;;;;;;105.18;22.17;;;5.20;99.90;;;;;;5052050;28;20060;-63
2020/12/07 02:13:09;;;;;;;116.93;24.27;;;5.10;99.90;;;;;;5051778;28;20111;-63
2020/12/07 02:15:36;;;;;;;100.10;20.33;;;5.10;99.90;;;;;;5052524;28;20041;-62
2020/12/07 02:18:02;;;;;;;118.80;23.60;;;5.10;99.90;;;;;;5052564;28;20049;-63
2020/12/07 02:20:28;;;;;;;91.68;18.25;;;5.10;99.90;;;;;;5052728;28;20540;-63
2020/12/07 02:22:54;;;;;;;121.88;23.30;;;5.10;99.90;;;;;;5052652;28;20204;-63
2020/12/07 02:25:40;;;;;;;100.28;22.48;;;5.10;99.90;;;;;;5051827;28;20059;-63
2020/12/07 02:28:06;;;;;;;97.07;23.10;;;5.10;99.90;;;;;;5052616;28;20041;-63
2020/12/07 02:30:32;;;;;;;105.53;24.38;;;5.10;99.90;;;;;;5052516;28;20125;-63
2020/12/07 02:32:57;;;;;;;114.60;23.08;;;5.00;99.90;;;;;;5052527;28;20076;-63
2020/12/07 02:35:23;;;;;;;120.10;23.92;;;5.10;99.90;;;;;;5052498;28;20095;-63
2020/12/07 02:37:49;;;;;;;146.75;26.05;;;5.10;99.90;;;;;;5055241;28;20083;-63
2020/12/07 02:40:35;;;;;;;113.95;23.92;;;5.00;99.90;;;;;;5055487;28;20420;-63
2020/12/07 02:43:01;;;;;;;99.00;22.88;;;5.10;99.90;;;;;;5056253;28;20068;-63
2020/12/07 02:45:27;;;;;;;85.55;20.77;;;5.10;99.90;;;;;;5056147;28;20079;-63
2020/12/07 02:47:52;;;;;;;96.13;22.92;;;5.00;99.90;;;;;;5056146;28;20045;-63
2020/12/07 02:50:18;;;;;;;109.10;24.05;;;5.00;99.90;;;;;;5056192;28;20055;-63
2020/12/07 02:53:04;;;;;;;103.38;25.13;;;5.00;99.90;;;;;;5055420;28;20060;-63
2020/12/07 02:55:30;;;;;;;98.07;25.23;;;5.00;99.90;;;;;;5054841;28;20053;-63
2020/12/07 02:58:16;;;;;;;112.00;24.75;;;5.00;99.90;;;;;;5054839;28;20057;-63
2020/12/07 03:00:42;;;;;;;97.85;24.90;;;5.00;99.90;;;;;;5056129;28;20404;-63
2020/12/07 03:03:07;;;;;;;68.25;24.00;;;5.10;99.90;;;;;;5055931;28;20045;-63
2020/12/07 03:05:53;;;;;;;71.90;23.77;;;5.10;99.90;;;;;;5055154;28;20136;-63
2020/12/07 03:08:39;;;;;;;63.60;23.33;;;5.00;99.90;;;;;;5054966;28;20057;-63
2020/12/07 03:11:24;;;;;;;65.03;23.42;;;5.00;99.90;;;;;;5054888;28;20060;-63
2020/12/07 03:13:50;;;;;;;68.63;24.30;;;4.90;99.90;;;;;;5054381;28;20049;-63
2020/12/07 03:16:16;;;;;;;72.18;23.95;;;5.00;99.90;;;;;;5055688;28;20048;-64
2020/12/07 03:18:42;;;;;;;75.60;24.48;;;4.90;99.90;;;;;;5055608;28;20041;-63
2020/12/07 03:21:08;;;;;;;75.43;23.40;;;4.90;99.90;;;;;;5055746;28;20049;-63
2020/12/07 03:23:34;;;;;;;80.97;25.98;;;5.00;99.90;;;;;;5055607;28;20048;-63
2020/12/07 03:26:00;;;;;;;104.38;26.88;;;5.00;99.90;;;;;;5055439;28;20041;-65
2020/12/07 03:28:45;;;;;;;73.43;24.10;;;5.00;99.90;;;;;;5054426;28;20049;-63
2020/12/07 03:31:11;;;;;;;73.55;23.42;;;5.00;99.90;;;;;;5054329;28;20045;-63
2020/12/07 03:33:37;;;;;;;79.88;22.65;;;5.00;99.90;;;;;;5055457;28;20052;-64
2020/12/07 03:36:02;;;;;;;64.03;22.50;;;5.00;99.90;;;;;;5055473;28;20088;-62
2020/12/07 03:38:48;;;;;;;60.10;20.33;;;5.00;99.90;;;;;;5054122;28;20492;-63
2020/12/07 03:41:14;;;;;;;74.97;20.95;;;5.00;99.90;;;;;;5055224;28;20052;-62
2020/12/07 03:43:40;;;;;;;62.67;19.63;;;4.90;99.90;;;;;;5055199;28;20044;-62
2020/12/07 03:46:05;;;;;;;63.63;20.40;;;4.90;99.90;;;;;;5055109;28;20501;-61
2020/12/07 03:48:31;;;;;;;63.13;20.90;;;4.90;99.90;;;;;;5054467;28;20040;-61
2020/12/07 03:50:57;;;;;;;63.63;19.88;;;5.00;99.90;;;;;;5055072;28;20094;-62
2020/12/07 03:53:23;;;;;;;55.17;18.65;;;4.90;99.90;;;;;;5054963;28;20432;-62
2020/12/07 03:55:49;;;;;;;53.50;17.52;;;4.90;99.90;;;;;;5054839;28;20041;-62
2020/12/07 03:58:35;;;;;;;47.65;17.52;;;4.90;99.90;;;;;;5053794;28;20420;-62
2020/12/07 04:01:21;;;;;;;47.67;17.08;;;4.90;99.90;;;;;;5054052;28;20049;-63
2020/12/07 04:04:10;;;;;;;53.00;17.58;;;4.90;99.90;;;;;;5053911;28;20057;-63
2020/12/07 04:06:40;;;;;;;47.25;16.40;;;4.90;99.90;;;;;;5054709;28;20045;-62
2020/12/07 04:09:07;;;;;;;46.95;17.23;;;4.90;99.90;;;;;;5054772;28;20049;-62
2020/12/07 04:11:53;;;;;;;46.63;15.80;;;4.90;99.90;;;;;;5053602;28;20127;-62
2020/12/07 04:14:18;;;;;;;51.33;16.67;;;4.90;99.90;;;;;;5054424;28;20145;-63
2020/12/07 04:16:44;;;;;;;45.28;16.75;;;4.90;99.90;;;;;;5054782;28;20056;-63
2020/12/07 04:19:10;;;;;;;40.22;14.23;;;4.90;99.90;;;;;;5054577;28;20493;-63
2020/12/07 04:21:55;;;;;;;36.33;12.98;;;4.80;99.90;;;;;;5053858;28;20049;-63
2020/12/07 04:24:21;;;;;;;49.00;15.23;;;4.80;99.90;;;;;;5054515;28;20453;-62
2020/12/07 04:27:07;;;;;;;36.22;14.18;;;4.80;99.90;;;;;;5053560;28;20053;-62
2020/12/07 04:29:33;;;;;;;38.28;15.13;;;4.90;99.90;;;;;;5053277;28;20052;-61
2020/12/07 04:31:58;;;;;;;43.97;14.68;;;4.80;99.90;;;;;;5054299;28;20079;-61
2020/12/07 04:34:24;;;;;;;39.00;13.45;;;4.80;99.90;;;;;;5054208;28;20120;-62
2020/12/07 04:36:54;;;;;;;46.03;15.15;;;4.80;99.90;;;;;;5053170;28;20041;-61
2020/12/07 04:39:40;;;;;;;50.33;15.57;;;4.90;99.90;;;;;;5039419;28;20061;-62
2020/12/07 04:42:06;;;;;;;35.40;13.02;;;4.80;99.90;;;;;;5054040;28;20565;-61
2020/12/07 04:44:53;;;;;;;29.90;11.60;;;4.80;99.90;;;;;;5053292;28;20463;-63
2020/12/07 04:47:19;;;;;;;31.02;11.32;;;4.80;99.90;;;;;;5054034;28;20401;-61
2020/12/07 04:49:46;;;;;;;28.00;10.05;;;4.80;99.90;;;;;;5054017;28;20053;-62
2020/12/07 04:52:33;;;;;;;32.63;11.85;;;4.80;99.90;;;;;;5052744;28;20501;-62
2020/12/07 04:55:19;;;;;;;21.33;9.55;;;4.80;99.90;;;;;;5052841;28;20061;-62
2020/12/07 04:57:46;;;;;;;21.75;10.10;;;4.80;99.90;;;;;;5052324;28;20531;-63
2020/12/07 05:00:12;;;;;;;21.50;9.98;;;4.80;99.90;;;;;;5053743;28;20488;-62
2020/12/07 05:02:39;;;;;;;24.20;9.57;;;4.80;99.90;;;;;;5053517;28;20108;-61
2020/12/07 05:05:25;;;;;;;26.98;11.23;;;4.70;99.90;;;;;;5052878;28;20053;-62
2020/12/07 05:07:51;;;;;;;25.45;9.38;;;4.80;99.90;;;;;;5053532;28;20052;-61
2020/12/07 05:10:43;;;;;;;19.70;8.25;;;4.70;99.90;;;;;;5053649;28;20048;-62
2020/12/07 05:16:08;;;;;;;17.42;9.52;;;4.70;99.90;;;;;;5040703;28;20055;-61
2020/12/07 05:18:54;;;;;;;20.17;8.95;;;4.70;99.90;;;;;;5052533;28;20077;-61
2020/12/07 05:21:20;;;;;;;20.52;9.32;;;4.60;99.90;;;;;;5053301;28;20155;-61
2020/12/07 05:23:51;;;;;;;20.83;9.13;;;4.60;99.90;;;;;;5053517;28;20052;-61
2020/12/07 05:26:38;;;;;;;23.88;9.80;;;4.60;99.90;;;;;;5052491;28;20048;-62
2020/12/07 05:29:06;;;;;;;19.42;8.82;;;4.60;99.90;;;;;;5053352;28;20507;-62
2020/12/07 05:31:35;;;;;;;25.17;9.85;;;4.60;99.90;;;;;;5053036;28;20049;-62
2020/12/07 05:34:03;;;;;;;23.55;11.30;;;4.60;99.90;;;;;;5053001;28;20548;-62
2020/12/07 05:36:54;;;;;;;20.25;11.70;;;4.60;99.90;;;;;;5052523;28;20496;-63
2020/12/07 05:39:40;;;;;;;27.60;11.98;;;4.60;99.90;;;;;;5052278;28;20115;-63
2020/12/07 05:42:28;;;;;;;27.90;12.90;;;4.50;99.90;;;;;;5052263;28;20063;-62
2020/12/07 05:44:56;;;;;;;24.98;12.20;;;4.50;99.90;;;;;;5053053;28;20075;-63
2020/12/07 05:47:43;;;;;;;27.92;13.38;;;4.50;99.90;;;;;;5052386;28;20049;-63
2020/12/07 05:50:10;;;;;;;28.70;13.73;;;4.50;99.90;;;;;;5052939;28;20059;-62
2020/12/07 05:52:49;;;;;;;25.85;13.85;;;4.50;99.90;;;;;;5052867;28;20052;-62
2020/12/07 05:55:17;;;;;;;30.50;13.93;;;4.50;99.90;;;;;;5052956;28;20056;-62
2020/12/07 05:57:50;;;;;;;28.20;14.50;;;4.40;99.90;;;;;;5053084;28;20472;-63
2020/12/07 06:00:37;;;;;;;27.40;14.95;;;4.40;99.90;;;;;;5052126;28;20079;-62
2020/12/07 06:03:06;;;;;;;29.50;14.48;;;4.40;99.90;;;;;;5051557;28;20106;-62
2020/12/07 06:05:32;;;;;;;31.77;15.38;;;4.40;99.90;;;;;;5052749;28;20507;-62
2020/12/07 06:08:12;;;;;;;30.92;14.32;;;4.40;99.90;;;;;;5052753;28;20099;-62
2020/12/07 06:10:41;;;;;;;30.95;14.70;;;4.40;99.90;;;;;;5052780;28;20492;-62
2020/12/07 06:13:15;;;;;;;30.27;15.50;;;4.40;99.90;;;;;;5056369;28;20037;-62
2020/12/07 06:15:47;;;;;;;31.73;14.45;;;4.30;99.90;;;;;;5056652;28;20476;-62
2020/12/07 06:18:35;;;;;;;30.85;14.38;;;4.40;99.90;;;;;;5057041;28;20045;-62
2020/12/07 06:21:06;;;;;;;32.25;15.23;;;4.30;99.90;;;;;;5055551;28;20132;-62
2020/12/07 06:23:41;;;;;;;30.38;14.48;;;4.30;99.90;;;;;;5056649;28;20045;-62
2020/12/07 06:26:09;;;;;;;28.25;13.32;;;4.30;99.90;;;;;;5056582;28;20073;-62
2020/12/07 06:28:56;;;;;;;28.75;14.50;;;4.30;99.90;;;;;;5055743;28;20049;-62
2020/12/07 06:31:25;;;;;;;24.15;13.75;;;4.30;99.90;;;;;;5056582;28;20049;-62
2020/12/07 06:33:54;;;;;;;29.42;12.80;;;4.20;99.90;;;;;;5056399;28;20055;-63
2020/12/07 06:36:29;;;;;;;22.08;12.30;;;4.20;99.90;;;;;;5056519;28;20120;-62
2020/12/07 06:39:15;;;;;;;40.30;15.35;;;4.20;99.90;;;;;;5055921;28;20147;-62
2020/12/07 06:41:46;;;;;;;25.45;13.27;;;4.20;99.90;;;;;;5056371;28;20119;-62
2020/12/07 06:44:14;;;;;;;28.50;14.57;;;4.20;99.90;;;;;;5056163;28;20056;-62
2020/12/07 06:46:46;;;;;;;31.70;14.73;;;4.20;99.90;;;;;;5056061;28;20073;-62
2020/12/07 06:49:13;;;;;;;26.30;13.50;;;4.20;99.90;;;;;;5055558;28;20036;-61
2020/12/07 06:51:39;;;;;;;24.10;12.68;;;4.20;99.90;;;;;;5056167;28;20059;-62
2020/12/07 06:55:02;;;;;;;24.52;13.65;;;4.20;99.90;;;;;;5056087;28;20389;-62
2020/12/07 06:57:30;;;;;;;28.30;13.00;;;4.20;99.90;;;;;;5054925;28;20060;-62
2020/12/07 06:59:58;;;;;;;24.13;12.57;;;4.20;99.90;;;;;;5056002;28;20044;-62
2020/12/07 07:02:23;;;;;;;25.38;13.20;;;4.20;99.90;;;;;;5055999;28;20048;-61
2020/12/07 07:05:10;;;;;;;22.33;11.38;;;4.10;99.90;;;;;;5055230;28;20053;-63
2020/12/07 07:07:56;;;;;;;30.38;12.80;;;4.20;99.90;;;;;;5054718;28;20045;-62
2020/12/07 07:10:23;;;;;;;21.48;12.82;;;4.20;99.90;;;;;;5055823;28;20052;-63
2020/12/07 07:13:11;;;;;;;26.77;13.23;;;4.10;99.90;;;;;;5082855;28;20103;-61
2020/12/07 07:15:41;;;;;;;24.77;12.93;;;4.20;99.90;;;;;;5055045;28;20091;-62
2020/12/07 07:18:27;;;;;;;21.42;11.55;;;4.20;99.90;;;;;;5034831;28;20049;-63
2020/12/07 07:21:13;;;;;;;25.63;12.55;;;4.20;99.90;;;;;;5044266;28;20496;-62
2020/12/07 07:23:59;;;;;;;22.77;12.38;;;4.20;99.90;;;;;;5053613;28;20052;-63
2020/12/07 07:26:28;;;;;;;21.80;12.02;;;4.20;99.90;;;;;;5053859;28;20106;-63
2020/12/07 07:29:14;;;;;;;24.77;12.10;;;4.20;99.90;;;;;;5050191;28;20465;-63
2020/12/07 07:32:00;;;;;;;23.73;12.98;;;4.20;99.90;;;;;;5054311;28;20471;-62
2020/12/07 07:34:27;;;;;;;22.13;12.68;;;4.10;99.90;;;;;;5055748;28;20128;-62
2020/12/07 07:36:53;;;;;;;28.80;13.35;;;4.10;99.90;;;;;;5055346;28;20068;-62
2020/12/07 07:39:19;;;;;;;21.17;11.07;;;4.10;99.90;;;;;;5055184;28;20485;-62
2020/12/07 07:41:46;;;;;;;23.63;13.40;;;4.10;99.90;;;;;;5054934;28;20045;-62
2020/12/07 07:44:15;;;;;;;22.27;13.38;;;4.10;99.90;;;;;;5053972;28;20063;-60
2020/12/07 07:46:43;;;;;;;22.55;13.25;;;4.20;99.90;;;;;;5052807;28;20099;-68
2020/12/07 07:49:27;;;;;;;31.98;13.90;;;4.20;99.90;;;;;;5054847;28;20578;-63
2020/12/07 07:52:29;;;;;;;25.17;12.88;;;4.20;99.90;;;;;;5054457;28;20041;-63
2020/12/07 08:17:56;;;;;;;28.60;14.63;;;4.20;99.90;;;;;;5054039;28;20124;-64
2020/12/07 08:20:43;;;;;;;30.02;14.50;;;4.20;99.90;;;;;;5054349;28;20056;-64
2020/12/07 08:23:09;;;;;;;33.85;15.77;;;4.20;99.90;;;;;;5054075;28;20056;-64
2020/12/07 08:25:44;;;;;;;34.53;14.88;;;4.20;99.90;;;;;;5052809;28;20045;-63
2020/12/07 08:28:40;;;;;;;39.17;17.88;;;4.20;99.90;;;;;;5054310;28;20559;-64
2020/12/07 08:31:20;;;;;;;44.17;17.45;;;4.20;99.90;;;;;;5053956;28;20056;-63
2020/12/07 08:34:14;;;;;;;30.27;15.68;;;4.30;99.90;;;;;;5053296;28;20731;-64
2020/12/07 08:36:45;;;;;;;37.85;16.13;;;4.30;99.90;;;;;;5054046;28;20488;-64
2020/12/07 08:39:11;;;;;;;32.70;16.38;;;4.30;99.90;;;;;;5053936;28;20045;-64
2020/12/07 08:41:37;;;;;;;29.25;14.70;;;4.30;99.90;;;;;;5054067;28;20052;-64
2020/12/07 08:44:08;;;;;;;32.70;15.52;;;4.30;99.90;;;;;;5053715;28;20052;-64
2020/12/07 08:46:36;;;;;;;24.13;12.68;;;4.40;99.90;;;;;;5053905;28;20111;-64
2020/12/07 08:49:22;;;;;;;30.73;14.25;;;4.40;99.90;;;;;;5052803;28;20060;-64
2020/12/07 08:51:48;;;;;;;25.33;11.13;;;4.40;99.90;;;;;;5048255;28;20045;-65
2020/12/07 08:54:14;;;;;;;24.58;12.27;;;4.50;99.90;;;;;;5053743;28;20403;-64
2020/12/07 08:56:40;;;;;;;31.30;13.20;;;4.50;99.90;;;;;;5053390;28;20041;-64
2020/12/07 08:59:07;;;;;;;32.90;13.60;;;4.50;99.90;;;;;;5052559;28;20484;-64
2020/12/07 09:01:33;;;;;;;28.90;13.38;;;4.50;99.90;;;;;;5053917;28;20045;-65
2020/12/07 09:04:18;;;;;;;22.13;11.43;;;4.60;99.90;;;;;;5052503;28;20420;-65
2020/12/07 09:07:04;;;;;;;23.02;12.35;;;4.60;99.90;;;;;;5052342;28;20492;-63
2020/12/07 09:09:30;;;;;;;22.02;12.00;;;4.60;99.90;;;;;;5053603;28;20102;-63
2020/12/07 09:11:56;;;;;;;28.30;13.32;;;4.60;99.90;;;;;;5052234;28;20051;-63
2020/12/07 09:14:22;;;;;;;25.60;12.23;;;4.70;99.90;;;;;;5052003;28;20052;-64
2020/12/07 09:16:47;;;;;;;30.27;12.73;;;4.70;99.90;;;;;;5052346;28;20072;-64
2020/12/07 09:19:13;;;;;;;28.63;13.57;;;4.70;99.90;;;;;;5053424;28;20123;-64
2020/12/07 09:21:39;;;;;;;27.38;13.60;;;4.80;99.90;;;;;;5053128;28;20053;-64
2020/12/07 09:24:05;;;;;;;21.65;11.85;;;4.80;99.90;;;;;;5053202;28;20124;-68
2020/12/07 09:26:30;;;;;;;23.70;12.60;;;4.80;99.90;;;;;;5043544;28;20045;-65
2020/12/07 09:28:56;;;;;;;28.25;12.85;;;4.80;99.90;;;;;;5052890;28;20450;-66
2020/12/07 09:31:22;;;;;;;24.02;11.98;;;4.90;99.90;;;;;;5052779;28;20544;-67
2020/12/07 09:33:49;;;;;;;24.42;12.90;;;4.90;99.90;;;;;;5051083;28;20062;-69
2020/12/07 09:36:15;;;;;;;36.08;14.88;;;4.80;99.90;;;;;;5049777;28;20045;-71
2020/12/07 09:38:40;;;;;;;29.35;12.88;;;4.80;99.90;;;;;;5050370;28;20044;-72
2020/12/07 09:41:07;;;;;;;27.33;13.88;;;4.90;99.90;;;;;;5046608;28;20119;-63
2020/12/07 09:43:33;;;;;;;35.73;15.20;;;4.90;99.90;;;;;;5039604;28;20037;-66
2020/12/07 09:45:59;;;;;;;40.63;15.52;;;4.90;99.90;;;;;;5047318;28;20044;-66
2020/12/07 09:48:44;;;;;;;34.08;14.38;;;4.90;99.90;;;;;;5045003;28;20103;-67
2020/12/07 09:51:30;;;;;;;37.85;16.20;;;5.00;99.90;;;;;;5041400;28;20142;-63
2020/12/07 09:53:56;;;;;;;24.08;12.90;;;5.00;99.90;;;;;;5040620;28;20086;-64
2020/12/07 09:56:24;;;;;;;29.48;13.95;;;5.00;99.90;;;;;;5049725;28;20128;-66
2020/12/07 09:58:50;;;;;;;33.33;15.60;;;5.00;99.90;;;;;;5045489;28;20503;-67
2020/12/07 10:01:16;;;;;;;32.15;14.77;;;5.00;99.90;;;;;;5050755;28;20072;-69
2020/12/07 10:03:42;;;;;;;26.13;13.27;;;5.00;99.90;;;;;;5052178;28;20091;-68
2020/12/07 10:06:29;;;;;;;39.55;16.50;;;5.00;99.90;;;;;;5029855;28;20050;-67
2020/12/07 10:08:55;;;;;;;37.10;16.40;;;5.00;99.90;;;;;;5045840;28;20045;-69
2020/12/07 10:11:41;;;;;;;32.65;15.75;;;5.00;99.90;;;;;;5039290;28;20083;-69
2020/12/07 10:14:06;;;;;;;38.45;16.55;;;5.00;99.90;;;;;;5052138;28;20100;-69
2020/12/07 10:16:52;;;;;;;36.40;14.80;;;5.10;99.90;;;;;;5051491;28;20048;-69
2020/12/07 10:19:38;;;;;;;29.58;13.77;;;5.10;99.90;;;;;;5051463;28;20098;-68
2020/12/07 10:22:04;;;;;;;31.77;13.98;;;5.20;99.90;;;;;;5052317;28;20048;-68
2020/12/07 10:24:32;;;;;;;26.83;12.23;;;5.20;99.90;;;;;;5052012;28;20404;-67
2020/12/07 10:26:58;;;;;;;32.92;13.88;;;5.30;99.90;;;;;;5052354;28;20083;-69
2020/12/07 10:29:23;;;;;;;20.30;9.38;;;5.40;99.90;;;;;;5048269;28;20405;-65
2020/12/07 10:31:49;;;;;;;23.40;10.75;;;5.40;99.90;;;;;;5052100;28;20048;-64
2020/12/07 10:34:37;;;;;;;22.13;9.18;;;5.50;99.90;;;;;;5051322;28;20071;-64
2020/12/07 10:37:05;;;;;;;;;;;5.60;99.90;;;;;;5052559;28;20049;-65
2020/12/07 10:39:31;;;;;;;11.13;5.18;;;5.70;99.90;;;;;;5052023;28;20015;-67
2020/12/07 10:41:58;;;;;;;11.05;5.30;;;5.80;99.90;;;;;;5051928;28;20389;-60
2020/12/07 10:44:25;;;;;;;16.15;5.68;;;5.80;99.90;;;;;;5049703;28;20051;-63
2020/12/07 10:46:51;;;;;;;11.38;4.75;;;5.90;99.90;;;;;;5042664;28;20095;-65
2020/12/07 10:49:17;;;;;;;6.53;3.00;;;5.90;99.90;;;;;;5052013;28;20053;-68
2020/12/07 10:52:03;;;;;;;9.60;3.42;;;6.00;99.90;;;;;;5045240;28;20045;-64
2020/12/07 10:54:49;;;;;;;4.07;2.38;;;6.00;99.90;;;;;;5050440;28;20061;-65
2020/12/07 10:57:15;;;;;;;11.07;2.83;;;6.10;99.90;;;;;;5051718;28;20061;-62
2020/12/07 11:00:01;;;;;;;9.73;2.53;;;6.10;99.90;;;;;;5046249;28;20048;-63
2020/12/07 11:02:27;;;;;;;11.00;2.90;;;6.10;99.90;;;;;;5047593;28;20067;-63
2020/12/07 11:05:13;;;;;;;15.05;3.78;;;6.20;99.90;;;;;;5048216;28;20087;-62
2020/12/07 11:07:59;;;;;;;7.07;2.90;;;6.10;99.90;;;;;;5062281;28;20128;-61
2020/12/07 11:10:45;;;;;;;10.95;2.85;;;6.20;99.90;;;;;;5048616;28;20053;-66
2020/12/07 11:13:32;;;;;;;8.65;2.30;;;6.20;99.90;;;;;;5049078;28;20053;-63
2020/12/07 11:16:24;;;;;;;10.27;2.42;;;6.20;99.90;;;;;;5045259;28;20163;-67
2020/12/07 11:18:50;;;;;;;11.25;3.70;;;6.20;99.90;;;;;;5053239;28;20057;-66
2020/12/07 11:21:16;;;;;;;8.48;2.97;;;6.20;99.90;;;;;;5062780;28;20079;-66
2020/12/07 11:23:44;;;;;;;11.90;3.00;;;6.20;99.90;;;;;;5055190;28;20076;-66
2020/12/07 11:26:17;;;;;;;8.45;2.92;;;6.20;99.90;;;;;;5055073;28;20501;-68
2020/12/07 11:28:44;;;;;;;7.90;2.90;;;6.20;99.90;;;;;;5057480;28;20040;-64
2020/12/07 11:31:10;;;;;;;6.13;2.83;;;6.20;99.90;;;;;;5056114;28;20056;-66
2020/12/07 11:33:36;;;;;;;6.93;3.05;;;6.20;99.90;;;;;;5055022;28;20068;-66
2020/12/07 11:36:22;;;;;;;8.75;2.80;;;6.20;99.90;;;;;;5053923;28;20056;-65
2020/12/07 11:39:18;;;;;;;7.30;2.45;;;6.20;99.90;;;;;;5055162;28;20049;-67
2020/12/07 11:44:34;;;;;;;5.30;2.05;;;6.30;99.90;;;;;;5072698;28;20049;-64
2020/12/07 11:47:07;;;;;;;10.30;3.58;;;6.30;99.90;;;;;;5072677;28;20067;-66
2020/12/07 11:49:32;;;;;;;7.10;2.75;;;6.30;99.90;;;;;;5072570;28;20056;-65
2020/12/07 11:52:05;;;;;;;6.28;1.48;;;6.30;99.90;;;;;;5072499;28;20455;-69
2020/12/07 11:54:31;;;;;;;5.20;1.85;;;6.30;99.90;;;;;;5058898;28;20132;-65
2020/12/07 11:57:02;;;;;;;3.30;1.77;;;6.40;99.90;;;;;;5068112;28;20083;-64
2020/12/07 11:59:27;;;;;;;10.05;1.80;;;6.40;99.90;;;;;;5068064;28;20393;-65
2020/12/07 12:01:53;;;;;;;6.05;1.70;;;6.50;99.90;;;;;;5080442;28;20067;-64
2020/12/07 12:04:39;;;;;;;9.32;2.30;;;6.40;99.90;;;;;;5044329;28;20059;-64
2020/12/07 12:07:06;;;;;;;3.67;1.95;;;6.50;99.90;;;;;;5064272;28;20044;-63
2020/12/07 12:09:36;;;;;;;8.85;1.60;;;6.40;99.90;;;;;;5067328;28;20282;-62
2020/12/07 12:12:02;;;;;;;6.97;1.50;;;6.40;99.90;;;;;;5055993;28;20044;-61
2020/12/07 12:14:48;;;;;;;3.00;1.70;;;6.40;99.90;;;;;;5048449;28;20053;-67
2020/12/07 12:17:14;;;;;;;6.63;1.60;;;6.40;99.90;;;;;;5071521;28;20098;-67
2020/12/07 12:19:39;;;;;;;6.57;1.60;;;6.40;99.90;;;;;;5071634;28;20134;-67
2020/12/07 12:22:05;;;;;;;3.35;1.63;;;6.40;99.90;;;;;;5057270;28;20057;-67
2020/12/07 12:24:31;;;;;;;3.85;1.80;;;6.40;99.90;;;;;;5052794;28;20124;-67
2020/12/07 12:26:57;;;;;;;3.70;2.08;;;6.40;99.90;;;;;;5047067;28;20086;-67
2020/12/07 12:29:43;;;;;;;5.60;2.03;;;6.40;99.90;;;;;;5078030;28;20115;-66
2020/12/07 12:32:08;;;;;;;7.38;1.50;;;6.40;99.90;;;;;;5053571;28;20032;-68
2020/12/07 12:34:34;;;;;;;3.80;1.58;;;6.40;99.90;;;;;;5053799;28;20103;-68
2020/12/07 12:37:00;;;;;;;7.35;1.98;;;6.40;99.90;;;;;;5053668;28;20041;-68
2020/12/07 12:39:25;;;;;;;5.93;1.27;;;6.40;99.90;;;;;;5053589;28;20044;-69
2020/12/07 12:41:51;;;;;;;5.05;1.40;;;6.40;99.90;;;;;;5053070;28;20045;-67
2020/12/07 12:44:37;;;;;;;5.95;1.80;;;6.40;99.90;;;;;;5048375;28;20132;-67
2020/12/07 12:47:03;;;;;;;10.55;2.25;;;6.40;99.90;;;;;;5053502;28;20127;-66
2020/12/07 12:49:31;;;;;;;4.88;2.10;;;6.40;99.90;;;;;;5052289;28;20132;-69
2020/12/07 12:51:57;;;;;;;4.18;1.60;;;6.40;99.90;;;;;;5053093;28;20111;-65
2020/12/07 12:54:43;;;;;;;4.95;1.60;;;6.40;99.90;;;;;;5052221;28;20056;-66
2020/12/07 12:57:09;;;;;;;7.22;2.00;;;6.40;99.90;;;;;;5052709;28;20419;-65
2020/12/07 12:59:34;;;;;;;5.15;1.60;;;6.40;99.90;;;;;;5052901;28;20045;-68
2020/12/07 13:02:00;;;;;;;4.80;1.75;;;6.40;99.90;;;;;;5050773;28;20072;-68
2020/12/07 13:04:26;;;;;;;7.93;2.13;;;6.40;99.90;;;;;;5049950;28;20051;-67
2020/12/07 13:07:12;;;;;;;9.27;2.60;;;6.50;99.90;;;;;;5052309;28;20041;-63
2020/12/07 13:09:38;;;;;;;7.35;2.13;;;6.50;99.90;;;;;;5053191;28;20052;-69
2020/12/07 13:12:23;;;;;;;5.13;1.80;;;6.40;99.90;;;;;;5052088;28;20380;-67
2020/12/07 13:14:49;;;;;;;4.85;1.20;;;6.50;99.90;;;;;;5052821;28;20080;-67
2020/12/07 13:17:38;;;;;;;6.45;1.63;;;6.40;99.90;;;;;;5052008;28;20049;-63
2020/12/07 13:20:31;;;;;;;5.40;1.42;;;6.40;99.90;;;;;;5051549;28;20049;-63
2020/12/07 13:23:24;;;;;;;6.55;1.90;;;6.40;99.90;;;;;;5052316;28;20497;-62
2020/12/07 13:26:10;;;;;;;8.32;2.88;;;6.40;99.90;;;;;;5051582;28;20056;-64
2020/12/07 13:28:36;;;;;;;2.58;2.00;;;6.40;99.90;;;;;;5052532;28;20048;-63
2020/12/07 13:31:02;;;;;;;2.50;1.45;;;6.40;99.90;;;;;;5052590;28;20072;-63
2020/12/07 13:33:28;;;;;;;5.60;2.05;;;6.40;99.90;;;;;;5051876;28;20262;-63
2020/12/07 13:35:53;;;;;;;8.23;2.92;;;6.40;99.90;;;;;;5052033;28;20423;-65
2020/12/07 13:38:19;;;;;;;5.15;2.22;;;6.40;99.90;;;;;;5051964;28;20053;-64